sensor_id;sensor_type;location;lat;lon;timestamp;P1;durP1;ratioP1;P2;durP2;ratioP2
32705;SDS011;19094;50.972;3.538;2022-07-01T00:00:05;15.50;;;4.38;;
32705;SDS011;19094;50.972;3.538;2022-07-01T00:02:31;16.90;;;4.50;;
32705;SDS011;19094;50.972;3.538;2022-07-01T00:04:57;13.65;;;4.15;;
32705;SDS011;19094;50.972;3.538;2022-07-01T00:07:23;10.73;;;4.57;;
32705;SDS011;19094;50.972;3.538;2022-07-01T00:09:48;11.35;;;4.47;;
32705;SDS011;19094;50.972;3.538;2022-07-01T00:12:17;11.63;;;4.78;;
32705;SDS011;19094;50.972;3.538;2022-07-01T00:14:43;16.80;;;4.85;;
32705;SDS011;19094;50.972;3.538;2022-07-01T00:17:09;9.90;;;4.40;;
32705;SDS011;19094;50.972;3.538;2022-07-01T00:19:35;15.25;;;4.38;;
32705;SDS011;19094;50.972;3.538;2022-07-01T00:22:01;9.05;;;4.35;;
32705;SDS011;19094;50.972;3.538;2022-07-01T00:24:29;12.00;;;4.43;;
32705;SDS011;19094;50.972;3.538;2022-07-01T00:26:55;11.10;;;4.43;;
32705;SDS011;19094;50.972;3.538;2022-07-01T00:29:20;14.13;;;5.32;;
32705;SDS011;19094;50.972;3.538;2022-07-01T00:31:47;11.73;;;6.03;;
32705;SDS011;19094;50.972;3.538;2022-07-01T00:34:13;15.13;;;7.22;;
32705;SDS011;19094;50.972;3.538;2022-07-01T00:36:38;21.98;;;8.27;;
32705;SDS011;19094;50.972;3.538;2022-07-01T00:39:04;21.73;;;8.52;;
32705;SDS011;19094;50.972;3.538;2022-07-01T00:41:29;25.20;;;8.50;;
32705;SDS011;19094;50.972;3.538;2022-07-01T00:43:56;18.45;;;8.30;;
32705;SDS011;19094;50.972;3.538;2022-07-01T00:46:24;17.85;;;7.88;;
32705;SDS011;19094;50.972;3.538;2022-07-01T00:48:51;16.88;;;8.50;;
32705;SDS011;19094;50.972;3.538;2022-07-01T00:51:18;13.05;;;7.88;;
32705;SDS011;19094;50.972;3.538;2022-07-01T00:53:45;14.77;;;8.27;;
32705;SDS011;19094;50.972;3.538;2022-07-01T00:56:12;18.88;;;8.43;;
32705;SDS011;19094;50.972;3.538;2022-07-01T00:58:39;17.67;;;8.93;;
32705;SDS011;19094;50.972;3.538;2022-07-01T01:01:05;13.35;;;8.02;;
32705;SDS011;19094;50.972;3.538;2022-07-01T01:03:30;14.98;;;7.47;;
32705;SDS011;19094;50.972;3.538;2022-07-01T01:05:56;17.77;;;7.88;;
32705;SDS011;19094;50.972;3.538;2022-07-01T01:08:23;22.55;;;8.07;;
32705;SDS011;19094;50.972;3.538;2022-07-01T01:10:50;14.68;;;7.38;;
32705;SDS011;19094;50.972;3.538;2022-07-01T01:13:18;11.65;;;7.00;;
32705;SDS011;19094;50.972;3.538;2022-07-01T01:15:43;16.35;;;7.30;;
32705;SDS011;19094;50.972;3.538;2022-07-01T01:18:09;14.10;;;6.70;;
32705;SDS011;19094;50.972;3.538;2022-07-01T01:20:35;11.10;;;6.03;;
32705;SDS011;19094;50.972;3.538;2022-07-01T01:23:02;13.27;;;5.75;;
32705;SDS011;19094;50.972;3.538;2022-07-01T01:25:29;11.32;;;5.47;;
32705;SDS011;19094;50.972;3.538;2022-07-01T01:27:59;11.05;;;5.82;;
32705;SDS011;19094;50.972;3.538;2022-07-01T01:30:26;11.30;;;6.10;;
32705;SDS011;19094;50.972;3.538;2022-07-01T01:32:52;22.25;;;6.20;;
32705;SDS011;19094;50.972;3.538;2022-07-01T01:35:18;8.82;;;4.90;;
32705;SDS011;19094;50.972;3.538;2022-07-01T01:37:45;8.75;;;5.10;;
32705;SDS011;19094;50.972;3.538;2022-07-01T01:40:11;10.07;;;5.18;;
32705;SDS011;19094;50.972;3.538;2022-07-01T01:42:41;10.90;;;4.63;;
32705;SDS011;19094;50.972;3.538;2022-07-01T01:45:08;13.70;;;4.72;;
32705;SDS011;19094;50.972;3.538;2022-07-01T01:47:35;10.43;;;4.30;;
32705;SDS011;19094;50.972;3.538;2022-07-01T01:50:03;14.27;;;4.93;;
32705;SDS011;19094;50.972;3.538;2022-07-01T01:52:30;9.82;;;4.35;;
32705;SDS011;19094;50.972;3.538;2022-07-01T01:54:56;10.95;;;4.43;;
32705;SDS011;19094;50.972;3.538;2022-07-01T01:57:21;11.40;;;4.93;;
32705;SDS011;19094;50.972;3.538;2022-07-01T01:59:47;8.85;;;4.25;;
32705;SDS011;19094;50.972;3.538;2022-07-01T02:02:14;16.45;;;5.40;;
32705;SDS011;19094;50.972;3.538;2022-07-01T02:04:41;12.93;;;4.75;;
32705;SDS011;19094;50.972;3.538;2022-07-01T02:07:07;11.52;;;4.60;;
32705;SDS011;19094;50.972;3.538;2022-07-01T02:09:34;10.32;;;5.20;;
32705;SDS011;19094;50.972;3.538;2022-07-01T02:12:00;13.18;;;5.50;;
32705;SDS011;19094;50.972;3.538;2022-07-01T02:14:26;12.60;;;4.95;;
32705;SDS011;19094;50.972;3.538;2022-07-01T02:16:53;11.63;;;5.10;;
32705;SDS011;19094;50.972;3.538;2022-07-01T02:19:20;11.82;;;4.60;;
32705;SDS011;19094;50.972;3.538;2022-07-01T02:21:47;14.63;;;4.97;;
32705;SDS011;19094;50.972;3.538;2022-07-01T02:24:12;10.32;;;5.05;;
32705;SDS011;19094;50.972;3.538;2022-07-01T02:26:39;11.48;;;4.85;;
32705;SDS011;19094;50.972;3.538;2022-07-01T02:29:07;17.15;;;4.75;;
32705;SDS011;19094;50.972;3.538;2022-07-01T02:31:33;12.70;;;4.78;;
32705;SDS011;19094;50.972;3.538;2022-07-01T02:34:00;9.07;;;4.43;;
32705;SDS011;19094;50.972;3.538;2022-07-01T02:36:26;13.07;;;4.50;;
32705;SDS011;19094;50.972;3.538;2022-07-01T02:38:53;12.10;;;4.75;;
32705;SDS011;19094;50.972;3.538;2022-07-01T02:41:19;12.77;;;4.85;;
32705;SDS011;19094;50.972;3.538;2022-07-01T02:43:44;13.85;;;4.68;;
32705;SDS011;19094;50.972;3.538;2022-07-01T02:46:10;6.35;;;3.83;;
32705;SDS011;19094;50.972;3.538;2022-07-01T02:48:35;12.65;;;4.30;;
32705;SDS011;19094;50.972;3.538;2022-07-01T02:51:01;9.10;;;4.35;;
32705;SDS011;19094;50.972;3.538;2022-07-01T02:53:27;19.00;;;4.60;;
32705;SDS011;19094;50.972;3.538;2022-07-01T02:55:52;12.00;;;4.30;;
32705;SDS011;19094;50.972;3.538;2022-07-01T02:58:18;14.07;;;3.97;;
32705;SDS011;19094;50.972;3.538;2022-07-01T03:00:44;11.10;;;3.78;;
32705;SDS011;19094;50.972;3.538;2022-07-01T03:03:09;13.50;;;5.10;;
32705;SDS011;19094;50.972;3.538;2022-07-01T03:05:35;11.45;;;3.53;;
32705;SDS011;19094;50.972;3.538;2022-07-01T03:08:03;10.32;;;4.05;;
32705;SDS011;19094;50.972;3.538;2022-07-01T03:10:31;15.23;;;3.95;;
32705;SDS011;19094;50.972;3.538;2022-07-01T03:12:58;10.02;;;3.80;;
32705;SDS011;19094;50.972;3.538;2022-07-01T03:15:24;8.45;;;3.45;;
32705;SDS011;19094;50.972;3.538;2022-07-01T03:17:51;16.75;;;4.95;;
32705;SDS011;19094;50.972;3.538;2022-07-01T03:20:17;11.98;;;4.63;;
32705;SDS011;19094;50.972;3.538;2022-07-01T03:22:43;15.57;;;5.50;;
32705;SDS011;19094;50.972;3.538;2022-07-01T03:25:10;12.45;;;5.32;;
32705;SDS011;19094;50.972;3.538;2022-07-01T03:27:36;15.90;;;6.15;;
32705;SDS011;19094;50.972;3.538;2022-07-01T03:30:03;13.40;;;6.03;;
32705;SDS011;19094;50.972;3.538;2022-07-01T03:32:30;15.57;;;6.13;;
32705;SDS011;19094;50.972;3.538;2022-07-01T03:34:55;13.07;;;6.72;;
32705;SDS011;19094;50.972;3.538;2022-07-01T03:37:21;18.55;;;6.15;;
32705;SDS011;19094;50.972;3.538;2022-07-01T03:39:47;13.00;;;6.50;;
32705;SDS011;19094;50.972;3.538;2022-07-01T03:42:14;9.40;;;5.72;;
32705;SDS011;19094;50.972;3.538;2022-07-01T03:44:41;12.48;;;6.35;;
32705;SDS011;19094;50.972;3.538;2022-07-01T03:47:09;18.80;;;5.78;;
32705;SDS011;19094;50.972;3.538;2022-07-01T03:49:34;16.98;;;6.00;;
32705;SDS011;19094;50.972;3.538;2022-07-01T03:52:02;14.65;;;5.47;;
32705;SDS011;19094;50.972;3.538;2022-07-01T03:54:31;17.75;;;5.75;;
32705;SDS011;19094;50.972;3.538;2022-07-01T03:59:31;24.27;;;5.47;;
32705;SDS011;19094;50.972;3.538;2022-07-01T04:01:58;9.02;;;4.40;;
32705;SDS011;19094;50.972;3.538;2022-07-01T04:04:26;11.93;;;5.05;;
32705;SDS011;19094;50.972;3.538;2022-07-01T04:06:53;17.23;;;5.10;;
32705;SDS011;19094;50.972;3.538;2022-07-01T04:09:26;18.13;;;4.93;;
32705;SDS011;19094;50.972;3.538;2022-07-01T04:11:54;15.77;;;4.57;;
32705;SDS011;19094;50.972;3.538;2022-07-01T04:14:20;8.00;;;4.50;;
32705;SDS011;19094;50.972;3.538;2022-07-01T04:16:46;11.77;;;4.43;;
32705;SDS011;19094;50.972;3.538;2022-07-01T04:19:15;11.45;;;4.15;;
32705;SDS011;19094;50.972;3.538;2022-07-01T04:21:42;12.57;;;4.55;;
32705;SDS011;19094;50.972;3.538;2022-07-01T04:26:54;21.15;;;4.95;;
32705;SDS011;19094;50.972;3.538;2022-07-01T04:29:20;16.50;;;4.53;;
32705;SDS011;19094;50.972;3.538;2022-07-01T04:31:46;13.80;;;4.45;;
32705;SDS011;19094;50.972;3.538;2022-07-01T04:34:12;9.02;;;4.47;;
32705;SDS011;19094;50.972;3.538;2022-07-01T04:36:38;21.17;;;4.60;;
32705;SDS011;19094;50.972;3.538;2022-07-01T04:39:04;13.80;;;4.35;;
32705;SDS011;19094;50.972;3.538;2022-07-01T04:41:33;16.73;;;4.45;;
32705;SDS011;19094;50.972;3.538;2022-07-01T04:44:18;12.00;;;4.55;;
32705;SDS011;19094;50.972;3.538;2022-07-01T04:46:47;14.07;;;4.13;;
32705;SDS011;19094;50.972;3.538;2022-07-01T04:49:13;13.38;;;5.15;;
32705;SDS011;19094;50.972;3.538;2022-07-01T04:51:38;13.85;;;4.30;;
32705;SDS011;19094;50.972;3.538;2022-07-01T04:54:05;10.60;;;4.15;;
32705;SDS011;19094;50.972;3.538;2022-07-01T04:56:32;11.38;;;4.53;;
32705;SDS011;19094;50.972;3.538;2022-07-01T04:58:59;18.65;;;4.18;;
32705;SDS011;19094;50.972;3.538;2022-07-01T05:01:26;14.07;;;4.47;;
32705;SDS011;19094;50.972;3.538;2022-07-01T05:03:56;15.80;;;5.35;;
32705;SDS011;19094;50.972;3.538;2022-07-01T05:06:22;15.80;;;4.63;;
32705;SDS011;19094;50.972;3.538;2022-07-01T05:08:50;11.23;;;4.75;;
32705;SDS011;19094;50.972;3.538;2022-07-01T05:11:16;12.38;;;4.53;;
32705;SDS011;19094;50.972;3.538;2022-07-01T05:13:43;15.07;;;4.70;;
32705;SDS011;19094;50.972;3.538;2022-07-01T05:16:08;12.52;;;4.22;;
32705;SDS011;19094;50.972;3.538;2022-07-01T05:18:35;14.57;;;4.80;;
32705;SDS011;19094;50.972;3.538;2022-07-01T05:21:20;13.80;;;4.10;;
32705;SDS011;19094;50.972;3.538;2022-07-01T05:26:30;15.63;;;4.72;;
32705;SDS011;19094;50.972;3.538;2022-07-01T05:28:56;13.90;;;4.63;;
32705;SDS011;19094;50.972;3.538;2022-07-01T05:31:23;17.42;;;5.80;;
32705;SDS011;19094;50.972;3.538;2022-07-01T05:33:49;14.82;;;4.20;;
32705;SDS011;19094;50.972;3.538;2022-07-01T05:36:14;18.25;;;4.43;;
32705;SDS011;19094;50.972;3.538;2022-07-01T05:38:41;17.40;;;4.68;;
32705;SDS011;19094;50.972;3.538;2022-07-01T05:41:07;16.45;;;4.35;;
32705;SDS011;19094;50.972;3.538;2022-07-01T05:43:33;11.73;;;4.60;;
32705;SDS011;19094;50.972;3.538;2022-07-01T05:45:59;15.38;;;4.70;;
32705;SDS011;19094;50.972;3.538;2022-07-01T05:48:27;12.38;;;3.60;;
32705;SDS011;19094;50.972;3.538;2022-07-01T05:50:52;12.57;;;4.57;;
32705;SDS011;19094;50.972;3.538;2022-07-01T05:53:18;11.98;;;3.67;;
32705;SDS011;19094;50.972;3.538;2022-07-01T05:55:44;11.45;;;4.38;;
32705;SDS011;19094;50.972;3.538;2022-07-01T05:58:10;12.90;;;3.90;;
32705;SDS011;19094;50.972;3.538;2022-07-01T06:00:36;16.25;;;4.18;;
32705;SDS011;19094;50.972;3.538;2022-07-01T06:03:03;17.08;;;4.97;;
32705;SDS011;19094;50.972;3.538;2022-07-01T06:05:28;10.70;;;3.80;;
32705;SDS011;19094;50.972;3.538;2022-07-01T06:07:56;9.60;;;3.97;;
32705;SDS011;19094;50.972;3.538;2022-07-01T06:10:21;13.48;;;4.45;;
32705;SDS011;19094;50.972;3.538;2022-07-01T06:12:47;9.70;;;3.60;;
32705;SDS011;19094;50.972;3.538;2022-07-01T06:15:13;9.27;;;3.85;;
32705;SDS011;19094;50.972;3.538;2022-07-01T06:17:39;11.05;;;3.30;;
32705;SDS011;19094;50.972;3.538;2022-07-01T06:20:06;12.02;;;3.78;;
32705;SDS011;19094;50.972;3.538;2022-07-01T06:22:33;9.05;;;3.20;;
32705;SDS011;19094;50.972;3.538;2022-07-01T06:24:59;19.25;;;3.40;;
32705;SDS011;19094;50.972;3.538;2022-07-01T06:27:28;14.05;;;2.88;;
32705;SDS011;19094;50.972;3.538;2022-07-01T06:29:56;21.33;;;3.55;;
32705;SDS011;19094;50.972;3.538;2022-07-01T06:32:22;14.23;;;2.92;;
32705;SDS011;19094;50.972;3.538;2022-07-01T06:34:47;9.98;;;2.00;;
32705;SDS011;19094;50.972;3.538;2022-07-01T06:37:14;9.73;;;2.00;;
32705;SDS011;19094;50.972;3.538;2022-07-01T06:39:39;11.10;;;2.03;;
32705;SDS011;19094;50.972;3.538;2022-07-01T06:42:05;7.57;;;1.90;;
32705;SDS011;19094;50.972;3.538;2022-07-01T06:44:31;10.75;;;2.45;;
32705;SDS011;19094;50.972;3.538;2022-07-01T06:46:57;9.55;;;1.92;;
32705;SDS011;19094;50.972;3.538;2022-07-01T06:49:23;9.38;;;2.00;;
32705;SDS011;19094;50.972;3.538;2022-07-01T06:51:49;6.40;;;1.70;;
32705;SDS011;19094;50.972;3.538;2022-07-01T06:54:15;12.48;;;2.33;;
32705;SDS011;19094;50.972;3.538;2022-07-01T06:56:43;11.73;;;1.70;;
32705;SDS011;19094;50.972;3.538;2022-07-01T06:59:09;8.65;;;1.85;;
32705;SDS011;19094;50.972;3.538;2022-07-01T07:01:34;10.27;;;2.15;;
32705;SDS011;19094;50.972;3.538;2022-07-01T07:04:00;8.15;;;1.83;;
32705;SDS011;19094;50.972;3.538;2022-07-01T07:06:30;5.57;;;1.58;;
32705;SDS011;19094;50.972;3.538;2022-07-01T07:08:57;12.63;;;2.00;;
32705;SDS011;19094;50.972;3.538;2022-07-01T07:11:22;9.65;;;1.90;;
32705;SDS011;19094;50.972;3.538;2022-07-01T07:13:48;6.97;;;2.28;;
32705;SDS011;19094;50.972;3.538;2022-07-01T07:16:15;12.20;;;1.45;;
32705;SDS011;19094;50.972;3.538;2022-07-01T07:18:46;15.93;;;1.70;;
32705;SDS011;19094;50.972;3.538;2022-07-01T07:21:12;6.40;;;1.50;;
32705;SDS011;19094;50.972;3.538;2022-07-01T07:23:38;5.05;;;1.08;;
32705;SDS011;19094;50.972;3.538;2022-07-01T07:26:03;3.42;;;0.90;;
32705;SDS011;19094;50.972;3.538;2022-07-01T07:28:29;9.70;;;1.10;;
32705;SDS011;19094;50.972;3.538;2022-07-01T07:30:55;6.80;;;1.50;;
32705;SDS011;19094;50.972;3.538;2022-07-01T07:33:20;7.85;;;1.23;;
32705;SDS011;19094;50.972;3.538;2022-07-01T07:35:48;5.47;;;1.10;;
32705;SDS011;19094;50.972;3.538;2022-07-01T07:38:13;4.43;;;1.40;;
32705;SDS011;19094;50.972;3.538;2022-07-01T07:40:40;6.95;;;1.38;;
32705;SDS011;19094;50.972;3.538;2022-07-01T07:43:07;5.60;;;1.25;;
32705;SDS011;19094;50.972;3.538;2022-07-01T07:45:35;8.43;;;1.30;;
32705;SDS011;19094;50.972;3.538;2022-07-01T07:48:01;5.82;;;1.10;;
32705;SDS011;19094;50.972;3.538;2022-07-01T07:50:27;8.25;;;1.85;;
32705;SDS011;19094;50.972;3.538;2022-07-01T07:52:53;10.93;;;1.25;;
32705;SDS011;19094;50.972;3.538;2022-07-01T07:55:19;6.88;;;1.00;;
32705;SDS011;19094;50.972;3.538;2022-07-01T07:57:45;10.55;;;2.05;;
32705;SDS011;19094;50.972;3.538;2022-07-01T08:00:12;7.07;;;1.33;;
32705;SDS011;19094;50.972;3.538;2022-07-01T08:02:41;5.95;;;1.42;;
32705;SDS011;19094;50.972;3.538;2022-07-01T08:05:10;9.82;;;1.60;;
32705;SDS011;19094;50.972;3.538;2022-07-01T08:07:37;4.30;;;1.65;;
32705;SDS011;19094;50.972;3.538;2022-07-01T08:10:05;5.53;;;0.85;;
32705;SDS011;19094;50.972;3.538;2022-07-01T08:12:34;6.95;;;1.10;;
32705;SDS011;19094;50.972;3.538;2022-07-01T08:14:59;4.03;;;0.90;;
32705;SDS011;19094;50.972;3.538;2022-07-01T08:17:25;6.30;;;1.10;;
32705;SDS011;19094;50.972;3.538;2022-07-01T08:19:51;7.35;;;1.48;;
32705;SDS011;19094;50.972;3.538;2022-07-01T08:22:17;5.28;;;0.90;;
32705;SDS011;19094;50.972;3.538;2022-07-01T08:24:44;11.80;;;1.40;;
32705;SDS011;19094;50.972;3.538;2022-07-01T08:27:10;3.35;;;1.15;;
32705;SDS011;19094;50.972;3.538;2022-07-01T08:29:39;5.63;;;0.80;;
32705;SDS011;19094;50.972;3.538;2022-07-01T08:32:06;7.38;;;1.10;;
32705;SDS011;19094;50.972;3.538;2022-07-01T08:34:33;6.07;;;1.00;;
32705;SDS011;19094;50.972;3.538;2022-07-01T08:37:00;4.55;;;0.95;;
32705;SDS011;19094;50.972;3.538;2022-07-01T08:39:30;5.97;;;1.10;;
32705;SDS011;19094;50.972;3.538;2022-07-01T08:41:57;9.45;;;1.33;;
32705;SDS011;19094;50.972;3.538;2022-07-01T08:44:23;6.95;;;1.65;;
32705;SDS011;19094;50.972;3.538;2022-07-01T08:46:49;2.83;;;0.98;;
32705;SDS011;19094;50.972;3.538;2022-07-01T08:49:15;5.13;;;1.05;;
32705;SDS011;19094;50.972;3.538;2022-07-01T08:51:41;5.45;;;1.15;;
32705;SDS011;19094;50.972;3.538;2022-07-01T08:54:07;9.85;;;1.45;;
32705;SDS011;19094;50.972;3.538;2022-07-01T08:56:33;6.10;;;0.90;;
32705;SDS011;19094;50.972;3.538;2022-07-01T08:59:10;5.13;;;0.98;;
32705;SDS011;19094;50.972;3.538;2022-07-01T09:01:53;8.88;;;1.50;;
32705;SDS011;19094;50.972;3.538;2022-07-01T09:04:27;5.20;;;1.30;;
32705;SDS011;19094;50.972;3.538;2022-07-01T09:06:59;7.03;;;1.10;;
32705;SDS011;19094;50.972;3.538;2022-07-01T09:09:32;7.70;;;1.15;;
32705;SDS011;19094;50.972;3.538;2022-07-01T09:12:03;6.85;;;0.93;;
32705;SDS011;19094;50.972;3.538;2022-07-01T09:14:32;7.57;;;1.52;;
32705;SDS011;19094;50.972;3.538;2022-07-01T09:17:00;3.90;;;0.90;;
32705;SDS011;19094;50.972;3.538;2022-07-01T09:19:29;3.92;;;1.10;;
32705;SDS011;19094;50.972;3.538;2022-07-01T09:21:58;4.57;;;1.27;;
32705;SDS011;19094;50.972;3.538;2022-07-01T09:24:32;5.82;;;1.20;;
32705;SDS011;19094;50.972;3.538;2022-07-01T09:26:59;7.75;;;1.40;;
32705;SDS011;19094;50.972;3.538;2022-07-01T09:29:33;13.07;;;1.33;;
32705;SDS011;19094;50.972;3.538;2022-07-01T09:32:03;4.85;;;1.05;;
32705;SDS011;19094;50.972;3.538;2022-07-01T09:34:33;11.35;;;1.35;;
32705;SDS011;19094;50.972;3.538;2022-07-01T09:36:59;10.48;;;1.33;;
32705;SDS011;19094;50.972;3.538;2022-07-01T09:39:26;6.80;;;1.55;;
32705;SDS011;19094;50.972;3.538;2022-07-01T09:41:56;8.52;;;1.50;;
32705;SDS011;19094;50.972;3.538;2022-07-01T09:44:22;11.05;;;1.33;;
32705;SDS011;19094;50.972;3.538;2022-07-01T09:46:55;5.53;;;1.10;;
32705;SDS011;19094;50.972;3.538;2022-07-01T09:49:22;8.73;;;1.30;;
32705;SDS011;19094;50.972;3.538;2022-07-01T09:51:49;9.88;;;1.30;;
32705;SDS011;19094;50.972;3.538;2022-07-01T09:54:17;6.60;;;1.40;;
32705;SDS011;19094;50.972;3.538;2022-07-01T09:56:44;9.77;;;1.38;;
32705;SDS011;19094;50.972;3.538;2022-07-01T09:59:10;8.27;;;1.23;;
32705;SDS011;19094;50.972;3.538;2022-07-01T10:01:36;12.40;;;2.10;;
32705;SDS011;19094;50.972;3.538;2022-07-01T10:04:05;10.23;;;1.17;;
32705;SDS011;19094;50.972;3.538;2022-07-01T10:09:11;4.85;;;1.08;;
32705;SDS011;19094;50.972;3.538;2022-07-01T10:12:16;7.97;;;1.25;;
32705;SDS011;19094;50.972;3.538;2022-07-01T10:14:56;7.03;;;1.73;;
32705;SDS011;19094;50.972;3.538;2022-07-01T10:17:28;6.80;;;1.30;;
32705;SDS011;19094;50.972;3.538;2022-07-01T10:20:08;7.43;;;1.20;;
32705;SDS011;19094;50.972;3.538;2022-07-01T10:22:36;10.52;;;1.48;;
32705;SDS011;19094;50.972;3.538;2022-07-01T10:41:29;7.05;;;0.88;;
32705;SDS011;19094;50.972;3.538;2022-07-01T10:43:58;4.85;;;0.73;;
32705;SDS011;19094;50.972;3.538;2022-07-01T10:46:38;8.48;;;0.82;;
32705;SDS011;19094;50.972;3.538;2022-07-01T10:49:21;3.58;;;0.75;;
32705;SDS011;19094;50.972;3.538;2022-07-01T10:52:13;5.70;;;0.90;;
32705;SDS011;19094;50.972;3.538;2022-07-01T10:54:46;4.03;;;0.60;;
32705;SDS011;19094;50.972;3.538;2022-07-01T10:59:48;2.35;;;0.80;;
32705;SDS011;19094;50.972;3.538;2022-07-01T11:02:28;2.75;;;1.00;;
32705;SDS011;19094;50.972;3.538;2022-07-01T11:05:07;7.53;;;1.30;;
32705;SDS011;19094;50.972;3.538;2022-07-01T11:07:36;5.85;;;1.15;;
32705;SDS011;19094;50.972;3.538;2022-07-01T11:10:08;5.47;;;1.38;;
32705;SDS011;19094;50.972;3.538;2022-07-01T11:12:36;5.13;;;1.00;;
32705;SDS011;19094;50.972;3.538;2022-07-01T11:15:06;4.65;;;1.08;;
32705;SDS011;19094;50.972;3.538;2022-07-01T11:17:34;4.45;;;1.10;;
32705;SDS011;19094;50.972;3.538;2022-07-01T11:20:00;3.30;;;0.80;;
32705;SDS011;19094;50.972;3.538;2022-07-01T11:22:33;3.28;;;1.02;;
32705;SDS011;19094;50.972;3.538;2022-07-01T11:25:03;8.20;;;1.27;;
32705;SDS011;19094;50.972;3.538;2022-07-01T11:27:31;8.43;;;1.38;;
32705;SDS011;19094;50.972;3.538;2022-07-01T11:29:58;5.75;;;1.35;;
32705;SDS011;19094;50.972;3.538;2022-07-01T11:32:26;6.00;;;1.00;;
32705;SDS011;19094;50.972;3.538;2022-07-01T11:34:55;4.57;;;1.02;;
32705;SDS011;19094;50.972;3.538;2022-07-01T11:37:26;3.88;;;1.55;;
32705;SDS011;19094;50.972;3.538;2022-07-01T11:40:12;5.22;;;1.70;;
32705;SDS011;19094;50.972;3.538;2022-07-01T11:42:41;4.63;;;1.38;;
32705;SDS011;19094;50.972;3.538;2022-07-01T11:45:07;14.07;;;1.92;;
32705;SDS011;19094;50.972;3.538;2022-07-01T11:47:33;5.82;;;1.63;;
32705;SDS011;19094;50.972;3.538;2022-07-01T11:49:59;8.10;;;1.58;;
32705;SDS011;19094;50.972;3.538;2022-07-01T11:52:26;10.05;;;2.03;;
32705;SDS011;19094;50.972;3.538;2022-07-01T11:54:55;3.75;;;1.05;;
32705;SDS011;19094;50.972;3.538;2022-07-01T11:57:25;4.35;;;1.80;;
32705;SDS011;19094;50.972;3.538;2022-07-01T11:59:55;3.83;;;1.25;;
32705;SDS011;19094;50.972;3.538;2022-07-01T12:02:22;6.28;;;1.70;;
32705;SDS011;19094;50.972;3.538;2022-07-01T12:04:51;8.05;;;1.45;;
32705;SDS011;19094;50.972;3.538;2022-07-01T12:07:19;6.78;;;1.60;;
32705;SDS011;19094;50.972;3.538;2022-07-01T12:09:53;5.40;;;1.30;;
32705;SDS011;19094;50.972;3.538;2022-07-01T12:12:21;4.45;;;1.15;;
32705;SDS011;19094;50.972;3.538;2022-07-01T12:17:19;4.30;;;1.63;;
32705;SDS011;19094;50.972;3.538;2022-07-01T12:19:46;4.22;;;1.58;;
32705;SDS011;19094;50.972;3.538;2022-07-01T12:24:45;4.28;;;1.05;;
32705;SDS011;19094;50.972;3.538;2022-07-01T12:27:14;6.07;;;1.27;;
32705;SDS011;19094;50.972;3.538;2022-07-01T12:29:49;5.15;;;1.00;;
32705;SDS011;19094;50.972;3.538;2022-07-01T12:37:29;3.15;;;1.08;;
32705;SDS011;19094;50.972;3.538;2022-07-01T12:40:05;3.17;;;0.90;;
32705;SDS011;19094;50.972;3.538;2022-07-01T12:42:45;4.75;;;1.15;;
32705;SDS011;19094;50.972;3.538;2022-07-01T12:45:13;4.57;;;1.20;;
32705;SDS011;19094;50.972;3.538;2022-07-01T12:47:44;3.85;;;1.15;;
32705;SDS011;19094;50.972;3.538;2022-07-01T12:55:32;3.60;;;1.30;;
32705;SDS011;19094;50.972;3.538;2022-07-01T12:58:06;6.53;;;1.30;;
32705;SDS011;19094;50.972;3.538;2022-07-01T13:00:38;9.75;;;2.33;;
32705;SDS011;19094;50.972;3.538;2022-07-01T13:03:07;6.85;;;1.00;;
32705;SDS011;19094;50.972;3.538;2022-07-01T13:05:33;5.03;;;1.38;;
32705;SDS011;19094;50.972;3.538;2022-07-01T13:08:02;9.15;;;1.77;;
32705;SDS011;19094;50.972;3.538;2022-07-01T13:10:29;3.78;;;1.30;;
32705;SDS011;19094;50.972;3.538;2022-07-01T13:12:55;3.22;;;1.15;;
32705;SDS011;19094;50.972;3.538;2022-07-01T13:15:24;8.55;;;1.80;;
32705;SDS011;19094;50.972;3.538;2022-07-01T13:17:50;2.85;;;1.08;;
32705;SDS011;19094;50.972;3.538;2022-07-01T13:20:19;2.58;;;0.90;;
32705;SDS011;19094;50.972;3.538;2022-07-01T13:22:45;4.00;;;0.90;;
32705;SDS011;19094;50.972;3.538;2022-07-01T13:25:11;5.72;;;1.10;;
32705;SDS011;19094;50.972;3.538;2022-07-01T13:27:37;5.80;;;1.42;;
32705;SDS011;19094;50.972;3.538;2022-07-01T13:30:04;6.25;;;1.00;;
32705;SDS011;19094;50.972;3.538;2022-07-01T13:32:31;7.63;;;1.10;;
32705;SDS011;19094;50.972;3.538;2022-07-01T13:34:57;1.50;;;0.55;;
32705;SDS011;19094;50.972;3.538;2022-07-01T13:37:25;5.13;;;0.80;;
32705;SDS011;19094;50.972;3.538;2022-07-01T13:39:51;5.60;;;0.85;;
32705;SDS011;19094;50.972;3.538;2022-07-01T13:42:16;2.42;;;0.90;;
32705;SDS011;19094;50.972;3.538;2022-07-01T13:44:42;4.40;;;1.15;;
32705;SDS011;19094;50.972;3.538;2022-07-01T13:47:08;11.38;;;1.10;;
32705;SDS011;19094;50.972;3.538;2022-07-01T13:49:37;4.88;;;0.90;;
32705;SDS011;19094;50.972;3.538;2022-07-01T13:52:04;3.72;;;0.90;;
32705;SDS011;19094;50.972;3.538;2022-07-01T13:54:31;3.08;;;0.88;;
32705;SDS011;19094;50.972;3.538;2022-07-01T13:56:56;4.13;;;0.80;;
32705;SDS011;19094;50.972;3.538;2022-07-01T13:59:22;1.23;;;0.70;;
32705;SDS011;19094;50.972;3.538;2022-07-01T14:01:48;5.43;;;0.95;;
32705;SDS011;19094;50.972;3.538;2022-07-01T14:04:14;6.28;;;0.75;;
32705;SDS011;19094;50.972;3.538;2022-07-01T14:06:41;3.78;;;0.60;;
32705;SDS011;19094;50.972;3.538;2022-07-01T14:09:07;2.88;;;0.60;;
32705;SDS011;19094;50.972;3.538;2022-07-01T14:11:32;4.68;;;1.02;;
32705;SDS011;19094;50.972;3.538;2022-07-01T14:14:00;2.85;;;1.10;;
32705;SDS011;19094;50.972;3.538;2022-07-01T14:16:26;3.22;;;1.20;;
32705;SDS011;19094;50.972;3.538;2022-07-01T14:18:55;6.38;;;1.08;;
32705;SDS011;19094;50.972;3.538;2022-07-01T14:21:21;3.22;;;1.08;;
32705;SDS011;19094;50.972;3.538;2022-07-01T14:23:47;7.85;;;1.30;;
32705;SDS011;19094;50.972;3.538;2022-07-01T14:26:13;6.68;;;1.50;;
32705;SDS011;19094;50.972;3.538;2022-07-01T14:28:40;7.38;;;1.08;;
32705;SDS011;19094;50.972;3.538;2022-07-01T14:31:06;3.03;;;0.98;;
32705;SDS011;19094;50.972;3.538;2022-07-01T14:33:32;8.63;;;1.38;;
32705;SDS011;19094;50.972;3.538;2022-07-01T14:35:58;4.53;;;0.90;;
32705;SDS011;19094;50.972;3.538;2022-07-01T14:38:24;7.57;;;1.52;;
32705;SDS011;19094;50.972;3.538;2022-07-01T14:40:49;7.05;;;1.65;;
32705;SDS011;19094;50.972;3.538;2022-07-01T14:43:16;6.60;;;1.27;;
32705;SDS011;19094;50.972;3.538;2022-07-01T14:45:42;5.07;;;1.20;;
32705;SDS011;19094;50.972;3.538;2022-07-01T14:48:11;4.35;;;0.90;;
32705;SDS011;19094;50.972;3.538;2022-07-01T14:50:44;6.78;;;1.10;;
32705;SDS011;19094;50.972;3.538;2022-07-01T14:53:10;4.53;;;1.10;;
32705;SDS011;19094;50.972;3.538;2022-07-01T14:55:36;3.40;;;1.00;;
32705;SDS011;19094;50.972;3.538;2022-07-01T14:58:02;5.72;;;1.13;;
32705;SDS011;19094;50.972;3.538;2022-07-01T15:00:29;2.05;;;0.80;;
32705;SDS011;19094;50.972;3.538;2022-07-01T15:02:56;3.00;;;0.80;;
32705;SDS011;19094;50.972;3.538;2022-07-01T15:05:25;4.90;;;0.85;;
32705;SDS011;19094;50.972;3.538;2022-07-01T15:07:53;4.47;;;0.80;;
32705;SDS011;19094;50.972;3.538;2022-07-01T15:10:19;9.27;;;1.02;;
32705;SDS011;19094;50.972;3.538;2022-07-01T15:12:44;6.63;;;1.00;;
32705;SDS011;19094;50.972;3.538;2022-07-01T15:15:11;4.13;;;0.88;;
32705;SDS011;19094;50.972;3.538;2022-07-01T15:17:40;2.90;;;1.13;;
32705;SDS011;19094;50.972;3.538;2022-07-01T15:20:09;9.00;;;1.13;;
32705;SDS011;19094;50.972;3.538;2022-07-01T15:22:36;6.47;;;1.10;;
32705;SDS011;19094;50.972;3.538;2022-07-01T15:25:02;2.33;;;0.77;;
32705;SDS011;19094;50.972;3.538;2022-07-01T15:27:28;5.65;;;0.88;;